Terminal Aerodrome Forecast
Issued by NWS Tulsa, OK

Home | Current Version | Previous Version | Text Only | Print | Product List | Glossary On
Versions: 1 2 3 4 5 6 7 8 9 10 11 12 13
000
FTUS44 KTSA 290500
TAFFSM
TAF
KFSM 290520Z 2906/3006 01003KT P6SM FEW250
     FM291600 08006KT P6SM SCT110 SCT250
     FM300300 08004KT P6SM BKN250=

USA.gov is the U.S. government's official web portal to all federal, state and local government web resources and services.